Time;durP1;ratioP1;P1;durP2;ratioP2;P2;SDS_P1;SDS_P2;PMS_P1;PMS_P2;Temp;Humidity;BMP_temperature;BMP_pressure;BME280_temperature;BME280_humidity;BME280_pressure;Samples;Min_cycle;Max_cycle;Signal;HPM_P1;HPM_P2
2020/12/21 00:00:24;;;;;;;18.53;5.07;;;7.60;99.90;;;;;;5025260;28;20176;-92
2020/12/21 00:02:52;;;;;;;11.77;4.67;;;7.60;99.90;;;;;;5023779;28;20176;-91
2020/12/21 00:05:18;;;;;;;21.13;5.53;;;7.60;99.90;;;;;;5024152;28;20226;-92
2020/12/21 00:07:44;;;;;;;18.70;4.50;;;7.50;99.90;;;;;;5025174;28;20254;-92
2020/12/21 00:10:09;;;;;;;14.10;4.80;;;7.50;99.90;;;;;;5005830;28;20180;-91
2020/12/21 00:12:38;;;;;;;19.47;4.47;;;7.50;99.90;;;;;;5020502;28;20196;-91
2020/12/21 00:15:05;;;;;;;16.47;4.93;;;7.50;99.90;;;;;;5019613;28;20197;-92
2020/12/21 00:17:33;;;;;;;18.40;4.73;;;7.40;99.90;;;;;;5020129;28;20184;-91
2020/12/21 00:20:01;;;;;;;18.83;4.83;;;7.40;99.90;;;;;;5019404;28;20177;-92
2020/12/21 00:22:27;;;;;;;17.60;4.47;;;7.50;99.90;;;;;;5021049;28;20173;-91
2020/12/21 00:24:53;;;;;;;24.33;5.23;;;7.40;99.90;;;;;;5020643;28;20176;-91
2020/12/21 00:27:19;;;;;;;21.20;4.93;;;7.40;99.90;;;;;;5022607;28;20204;-91
2020/12/21 00:29:45;;;;;;;15.93;5.30;;;7.40;99.90;;;;;;5019908;28;20180;-91
2020/12/21 00:32:10;;;;;;;15.93;5.13;;;7.50;99.90;;;;;;5016610;28;20183;-91
2020/12/21 00:34:38;;;;;;;19.27;5.10;;;7.40;99.90;;;;;;5001967;28;20181;-92
2020/12/21 00:37:06;;;;;;;17.93;5.13;;;7.40;99.90;;;;;;5015857;28;20182;-92
2020/12/21 00:39:32;;;;;;;15.30;4.23;;;7.40;99.90;;;;;;5026797;28;20207;-93
2020/12/21 00:41:57;;;;;;;17.17;4.80;;;7.40;99.90;;;;;;5018813;28;20177;-93
2020/12/21 00:44:31;;;;;;;27.80;5.10;;;7.40;99.90;;;;;;5005822;28;20610;-91
2020/12/21 00:46:59;;;;;;;23.30;5.60;;;7.50;99.90;;;;;;5024360;28;20216;-91
2020/12/21 00:49:25;;;;;;;12.47;4.83;;;7.50;99.90;;;;;;5036031;28;20204;-91
2020/12/21 00:51:50;;;;;;;17.07;6.00;;;7.50;99.90;;;;;;5032198;28;20203;-91
2020/12/21 00:54:16;;;;;;;16.47;4.97;;;7.60;99.90;;;;;;5023494;28;20645;-91
2020/12/21 00:56:42;;;;;;;18.60;5.20;;;7.60;99.90;;;;;;5016984;28;20200;-92
2020/12/21 00:59:08;;;;;;;20.20;5.30;;;7.60;99.90;;;;;;5017124;28;20255;-92
2020/12/21 01:01:34;;;;;;;22.77;6.63;;;7.60;99.90;;;;;;5016162;28;20172;-92
2020/12/21 01:04:03;;;;;;;17.60;6.47;;;7.70;99.90;;;;;;5016295;28;20626;-92
2020/12/21 01:06:31;;;;;;;18.33;7.30;;;7.80;99.90;;;;;;5033976;28;20171;-92
2020/12/21 01:08:59;;;;;;;31.40;8.60;;;7.80;99.90;;;;;;5032302;28;20204;-91
2020/12/21 01:11:28;;;;;;;24.47;8.23;;;8.00;99.90;;;;;;5019813;28;20188;-92
2020/12/21 01:13:55;;;;;;;27.97;8.63;;;8.00;99.90;;;;;;5016430;28;20236;-92
2020/12/21 01:16:23;;;;;;;25.57;8.90;;;8.10;99.90;;;;;;5016532;28;20199;-91
2020/12/21 01:18:49;;;;;;;30.73;8.97;;;8.10;99.90;;;;;;5017112;28;20172;-91
2020/12/21 01:21:25;;;;;;;36.30;9.03;;;8.10;99.90;;;;;;4999156;28;20184;-92
2020/12/21 01:23:52;;;;;;;33.87;9.27;;;8.20;99.90;;;;;;5016370;28;20242;-92
2020/12/21 01:26:18;;;;;;;25.23;9.33;;;8.20;99.90;;;;;;4984210;28;20192;-92
2020/12/21 01:28:49;;;;;;;34.17;9.33;;;8.20;99.90;;;;;;5015645;28;20204;-91
2020/12/21 01:31:16;;;;;;;31.07;8.97;;;8.20;99.90;;;;;;4996628;28;20177;-91
2020/12/21 01:33:42;;;;;;;31.37;8.60;;;8.20;99.90;;;;;;4995957;28;20220;-91
2020/12/21 01:36:08;;;;;;;22.50;9.10;;;8.20;99.90;;;;;;5015201;28;20173;-91
2020/12/21 01:38:35;;;;;;;26.73;9.20;;;8.30;99.90;;;;;;5016170;28;20177;-92
2020/12/21 01:41:00;;;;;;;20.03;7.50;;;8.30;99.90;;;;;;5016495;28;20180;-91
2020/12/21 01:43:26;;;;;;;23.50;8.17;;;8.40;99.90;;;;;;5016282;28;20180;-91
2020/12/21 01:45:52;;;;;;;20.30;7.60;;;8.40;99.90;;;;;;4999315;28;20661;-92
2020/12/21 01:48:31;;;;;;;23.33;7.67;;;8.50;99.90;;;;;;5015774;28;20196;-91
2020/12/21 01:50:56;;;;;;;24.67;7.77;;;8.50;99.90;;;;;;5016093;28;20187;-91
2020/12/21 01:53:24;;;;;;;29.77;7.97;;;8.40;99.90;;;;;;5016782;28;20622;-92
2020/12/21 01:55:56;;;;;;;29.10;9.33;;;8.50;99.90;;;;;;5015156;28;20165;-91
2020/12/21 01:58:22;;;;;;;20.47;6.97;;;8.60;99.90;;;;;;5015411;28;20263;-92
2020/12/21 02:00:57;;;;;;;18.53;7.40;;;8.60;99.90;;;;;;5016390;28;20183;-92
2020/12/21 02:03:23;;;;;;;21.60;6.47;;;8.60;99.90;;;;;;5015802;28;20220;-92
2020/12/21 02:05:52;;;;;;;21.80;6.57;;;8.80;99.90;;;;;;5015300;28;20177;-92
2020/12/21 02:08:18;;;;;;;22.80;6.83;;;8.70;99.90;;;;;;5015766;28;20196;-92
2020/12/21 02:10:44;;;;;;;19.83;6.43;;;8.70;99.90;;;;;;5014536;28;20189;-92
2020/12/21 02:13:10;;;;;;;22.67;6.20;;;8.80;99.90;;;;;;5016925;28;20234;-92
2020/12/21 02:15:36;;;;;;;17.73;6.80;;;8.70;99.90;;;;;;5015051;28;20169;-92
2020/12/21 02:18:02;;;;;;;24.17;6.65;;;8.80;99.90;;;;;;5016033;28;20183;-92
2020/12/21 02:20:32;;;;;;;14.73;5.57;;;8.80;99.90;;;;;;5015862;28;20176;-91
2020/12/21 02:23:00;;;;;;;17.03;4.90;;;8.80;99.90;;;;;;5015675;28;20252;-91
2020/12/21 02:25:26;;;;;;;21.13;4.93;;;8.70;99.90;;;;;;5017278;28;20192;-90
2020/12/21 02:27:52;;;;;;;20.70;4.93;;;8.80;99.90;;;;;;5019265;28;20215;-91
2020/12/21 02:30:18;;;;;;;14.93;4.60;;;8.80;99.90;;;;;;5003261;28;20177;-91
2020/12/21 02:32:46;;;;;;;35.67;5.97;;;8.80;99.90;;;;;;5018729;28;20220;-91
2020/12/21 02:35:21;;;;;;;20.57;4.73;;;8.70;99.90;;;;;;5018499;28;20176;-93
2020/12/21 02:37:49;;;;;;;21.50;4.07;;;8.80;99.90;;;;;;5018900;28;20172;-91
2020/12/21 02:40:14;;;;;;;19.23;4.90;;;8.80;99.90;;;;;;4999464;28;20637;-91
2020/12/21 02:42:40;;;;;;;13.63;4.33;;;8.80;99.90;;;;;;5015349;28;20205;-91
2020/12/21 02:45:10;;;;;;;20.63;5.33;;;8.80;99.90;;;;;;5016700;28;20169;-92
2020/12/21 02:47:37;;;;;;;19.30;3.97;;;8.80;99.90;;;;;;5015261;28;20844;-92
2020/12/21 02:50:05;;;;;;;18.77;5.00;;;8.90;99.90;;;;;;5004156;28;20634;-91
2020/12/21 02:52:31;;;;;;;19.52;4.50;;;8.80;99.90;;;;;;5018590;28;20262;-91
2020/12/21 02:54:56;;;;;;;12.27;3.83;;;8.70;99.90;;;;;;5018439;28;20602;-91
2020/12/21 02:57:25;;;;;;;20.80;4.20;;;8.80;99.90;;;;;;5018421;28;20185;-92
2020/12/21 02:59:50;;;;;;;18.43;3.83;;;8.70;99.90;;;;;;5016637;28;20264;-92
2020/12/21 03:02:16;;;;;;;16.87;4.07;;;8.70;99.90;;;;;;5017072;28;20196;-91
2020/12/21 03:04:42;;;;;;;17.03;4.00;;;8.70;99.90;;;;;;5019875;28;20177;-91
2020/12/21 03:07:08;;;;;;;16.73;3.23;;;8.70;99.90;;;;;;4988104;28;20181;-92
2020/12/21 03:09:33;;;;;;;16.27;3.83;;;8.70;99.90;;;;;;5020200;28;20531;-92
2020/12/21 03:11:59;;;;;;;22.73;3.63;;;8.70;99.90;;;;;;5020859;28;20188;-91
2020/12/21 03:14:25;;;;;;;19.03;4.00;;;8.70;99.90;;;;;;5024194;28;20197;-92
2020/12/21 03:16:50;;;;;;;18.20;3.77;;;8.70;99.90;;;;;;5039645;28;20200;-91
2020/12/21 03:19:19;;;;;;;14.50;3.70;;;8.80;99.90;;;;;;5039765;28;20177;-91
2020/12/21 03:21:45;;;;;;;14.30;3.83;;;8.80;99.90;;;;;;5039317;28;20185;-92
2020/12/21 03:24:11;;;;;;;19.30;3.70;;;8.70;99.90;;;;;;5040436;28;20188;-92
2020/12/21 03:26:36;;;;;;;12.37;3.20;;;8.80;99.90;;;;;;5023293;28;20169;-92
2020/12/21 03:29:02;;;;;;;14.17;3.97;;;8.70;99.90;;;;;;5005560;28;20215;-92
2020/12/21 03:31:28;;;;;;;23.97;3.97;;;8.80;99.90;;;;;;5018261;28;20175;-92
2020/12/21 03:33:54;;;;;;;15.13;3.97;;;8.70;99.90;;;;;;5029494;28;20169;-92
2020/12/21 03:36:20;;;;;;;12.67;3.60;;;8.70;99.90;;;;;;5037194;28;20216;-92
2020/12/21 03:38:48;;;;;;;18.80;3.90;;;8.70;99.90;;;;;;5028740;28;20212;-92
2020/12/21 03:41:17;;;;;;;18.23;3.50;;;8.80;99.90;;;;;;5016960;28;20180;-92
2020/12/21 03:43:45;;;;;;;14.80;3.53;;;8.80;99.90;;;;;;5016293;28;20576;-92
2020/12/21 03:46:10;;;;;;;21.73;3.13;;;8.80;99.90;;;;;;5016664;28;20542;-92
2020/12/21 03:48:41;;;;;;;18.23;4.23;;;8.70;99.90;;;;;;5016079;28;20199;-92
2020/12/21 03:51:07;;;;;;;20.37;3.60;;;8.70;99.90;;;;;;4999755;28;20531;-92
2020/12/21 03:53:33;;;;;;;19.33;4.43;;;8.80;99.90;;;;;;5015288;28;20185;-92
2020/12/21 03:55:58;;;;;;;19.07;3.33;;;8.70;99.90;;;;;;5015272;28;20215;-92
2020/12/21 03:58:26;;;;;;;15.13;3.37;;;8.70;99.90;;;;;;5015215;28;20710;-92
2020/12/21 04:00:52;;;;;;;12.60;4.00;;;8.70;99.90;;;;;;5016363;28;20200;-92
2020/12/21 04:03:17;;;;;;;19.93;3.60;;;8.80;99.90;;;;;;5014947;28;20172;-92
2020/12/21 04:05:43;;;;;;;12.33;3.50;;;8.70;99.90;;;;;;4998619;28;20188;-92
2020/12/21 04:08:09;;;;;;;21.87;4.10;;;8.80;99.90;;;;;;5015001;28;20207;-92
2020/12/21 04:10:35;;;;;;;20.43;3.40;;;8.80;99.90;;;;;;4998393;28;20224;-92
2020/12/21 04:13:02;;;;;;;14.67;4.23;;;8.70;99.90;;;;;;4998507;28;20173;-92
2020/12/21 04:15:28;;;;;;;14.57;4.10;;;8.70;99.90;;;;;;4998395;28;20211;-92
2020/12/21 04:17:54;;;;;;;16.07;4.43;;;8.70;99.90;;;;;;5014599;28;20203;-91
2020/12/21 04:20:22;;;;;;;16.63;3.70;;;8.70;99.90;;;;;;4995007;28;20181;-92
2020/12/21 04:22:50;;;;;;;28.47;5.77;;;8.80;99.90;;;;;;5014438;28;20184;-92
2020/12/21 04:25:18;;;;;;;11.87;3.67;;;8.80;99.90;;;;;;5014556;28;20230;-92
2020/12/21 04:27:44;;;;;;;16.53;3.43;;;8.70;99.90;;;;;;5014167;28;20204;-92
2020/12/21 04:30:09;;;;;;;13.77;4.53;;;8.70;99.90;;;;;;5014495;28;20177;-92
2020/12/21 04:32:35;;;;;;;9.67;3.57;;;8.80;99.90;;;;;;5014283;28;20173;-92
2020/12/21 04:35:01;;;;;;;30.73;4.13;;;8.70;99.90;;;;;;5013844;28;20176;-91
2020/12/21 04:37:26;;;;;;;13.03;4.43;;;8.70;99.90;;;;;;4997924;28;20181;-91
2020/12/21 04:40:01;;;;;;;22.60;4.90;;;8.70;99.90;;;;;;4997876;28;20172;-92
2020/12/21 04:42:27;;;;;;;24.03;5.73;;;8.70;99.90;;;;;;5014109;28;20176;-92
2020/12/21 04:44:53;;;;;;;15.27;4.60;;;8.70;99.90;;;;;;5014446;28;20224;-92
2020/12/21 04:47:19;;;;;;;16.53;4.33;;;8.70;99.90;;;;;;5013820;28;20173;-92
2020/12/21 04:49:48;;;;;;;21.10;4.83;;;8.80;99.90;;;;;;5013889;28;20164;-92
2020/12/21 04:52:17;;;;;;;14.53;4.20;;;8.70;99.90;;;;;;5014233;28;20611;-92
2020/12/21 04:54:43;;;;;;;19.67;4.70;;;8.80;99.90;;;;;;5013992;28;20168;-92
2020/12/21 04:57:09;;;;;;;20.70;4.83;;;8.80;99.90;;;;;;5013888;28;20179;-92
2020/12/21 04:59:37;;;;;;;15.13;4.23;;;8.90;99.90;;;;;;5013849;28;20165;-92
2020/12/21 05:02:04;;;;;;;14.07;4.57;;;8.80;99.90;;;;;;4997269;28;20169;-92
2020/12/21 05:04:32;;;;;;;25.13;5.00;;;8.80;99.90;;;;;;4997770;28;20641;-92
2020/12/21 05:06:58;;;;;;;15.80;4.80;;;8.90;99.90;;;;;;4997701;28;20172;-91
2020/12/21 05:09:26;;;;;;;17.57;5.73;;;8.80;99.90;;;;;;5013766;28;20208;-92
2020/12/21 05:11:57;;;;;;;19.73;5.77;;;8.80;99.90;;;;;;5013433;28;20547;-92
2020/12/21 05:14:52;;;;;;;13.60;5.10;;;8.80;99.90;;;;;;5013818;28;20192;-91
2020/12/21 05:17:17;;;;;;;13.07;5.23;;;8.80;99.90;;;;;;4978441;28;20181;-92
2020/12/21 05:19:43;;;;;;;18.13;5.90;;;8.90;99.90;;;;;;4996982;28;20279;-92
2020/12/21 05:22:12;;;;;;;19.37;5.83;;;8.80;99.90;;;;;;5013738;28;20173;-92
2020/12/21 05:24:39;;;;;;;24.93;6.53;;;8.80;99.90;;;;;;5013412;28;20177;-91
2020/12/21 05:27:15;;;;;;;32.20;6.13;;;8.80;99.90;;;;;;5013596;28;20168;-92
2020/12/21 05:29:48;;;;;;;21.33;6.07;;;8.70;99.90;;;;;;5013619;28;20180;-92
2020/12/21 05:32:21;;;;;;;16.40;5.73;;;8.80;99.90;;;;;;4998386;28;20173;-92
2020/12/21 05:34:55;;;;;;;15.23;5.40;;;8.80;99.90;;;;;;5013587;28;20172;-91
2020/12/21 05:37:27;;;;;;;19.97;5.47;;;8.90;99.90;;;;;;4994917;28;20228;-92
2020/12/21 05:39:55;;;;;;;28.43;5.97;;;8.90;99.90;;;;;;5013590;28;20264;-92
2020/12/21 05:42:22;;;;;;;14.73;5.50;;;9.00;99.90;;;;;;5013511;28;20184;-91
2020/12/21 05:45:04;;;;;;;24.70;6.00;;;9.10;99.90;;;;;;5032883;28;20153;-91
2020/12/21 05:47:29;;;;;;;19.70;6.07;;;9.10;99.90;;;;;;5035034;28;20165;-92
2020/12/21 05:50:05;;;;;;;18.48;6.18;;;9.30;99.90;;;;;;5029481;28;20259;-90
2020/12/21 05:52:34;;;;;;;18.97;5.90;;;9.30;99.90;;;;;;5013537;28;20181;-91
2020/12/21 05:55:10;;;;;;;18.83;4.87;;;9.20;99.90;;;;;;5013560;28;20169;-91
2020/12/21 05:57:37;;;;;;;27.23;5.63;;;9.30;99.90;;;;;;5013619;28;20176;-92
2020/12/21 06:00:15;;;;;;;20.20;5.10;;;9.30;99.90;;;;;;4998061;28;20188;-92
2020/12/21 06:02:41;;;;;;;14.57;5.20;;;9.30;99.90;;;;;;5018039;28;20668;-92
2020/12/21 06:05:11;;;;;;;15.70;5.07;;;9.40;99.90;;;;;;5036169;28;20211;-91
2020/12/21 06:07:41;;;;;;;20.57;5.83;;;9.40;99.90;;;;;;5026582;28;20201;-92
2020/12/21 06:10:10;;;;;;;8.40;4.30;;;9.40;99.90;;;;;;5017173;28;20173;-92
2020/12/21 06:12:50;;;;;;;17.33;5.20;;;9.40;99.90;;;;;;5000634;28;20176;-91
2020/12/21 06:15:26;;;;;;;14.87;5.77;;;9.50;99.90;;;;;;5016906;28;20275;-92
2020/12/21 06:17:55;;;;;;;14.80;5.20;;;9.50;99.90;;;;;;5016714;28;20235;-92
2020/12/21 06:20:20;;;;;;;19.35;5.47;;;9.60;99.90;;;;;;5016728;28;20172;-92
2020/12/21 06:22:46;;;;;;;8.60;4.45;;;9.60;99.90;;;;;;5016661;28;20235;-92
2020/12/21 06:25:23;;;;;;;15.80;5.57;;;9.60;99.90;;;;;;5016788;28;20173;-91
2020/12/21 06:27:53;;;;;;;19.17;5.05;;;9.70;99.90;;;;;;5017568;28;20215;-91
2020/12/21 06:30:29;;;;;;;16.35;5.75;;;9.70;99.90;;;;;;5016725;28;20197;-92
2020/12/21 06:33:02;;;;;;;33.42;4.65;;;9.60;99.90;;;;;;5016659;28;20176;-92
2020/12/21 06:35:31;;;;;;;20.58;4.78;;;9.70;99.90;;;;;;5016810;28;20272;-92
2020/12/21 06:38:02;;;;;;;12.60;4.30;;;9.60;99.90;;;;;;5016598;28;20251;-92
2020/12/21 06:40:33;;;;;;;17.08;4.30;;;9.60;99.90;;;;;;5016115;28;20185;-92
2020/12/21 06:43:10;;;;;;;22.05;5.05;;;9.60;99.90;;;;;;5016488;28;20177;-92
2020/12/21 06:45:36;;;;;;;19.17;4.68;;;9.60;99.90;;;;;;5016361;28;20172;-92
2020/12/21 06:48:02;;;;;;;11.90;4.40;;;9.60;99.90;;;;;;5016239;28;20657;-92
2020/12/21 06:50:28;;;;;;;12.30;4.22;;;9.60;99.90;;;;;;5016260;28;20168;-92
2020/12/21 06:52:54;;;;;;;15.93;5.00;;;9.70;99.90;;;;;;5016311;28;20176;-91
2020/12/21 06:55:22;;;;;;;16.92;4.85;;;9.70;99.90;;;;;;4999724;28;20196;-91
2020/12/21 06:57:51;;;;;;;20.20;4.40;;;9.70;99.90;;;;;;5016311;28;20610;-92
2020/12/21 07:00:21;;;;;;;13.63;4.13;;;9.80;99.90;;;;;;5015912;28;20179;-92
2020/12/21 07:02:49;;;;;;;21.17;4.47;;;9.80;99.90;;;;;;4999891;28;20179;-92
2020/12/21 07:05:14;;;;;;;9.27;4.03;;;9.70;99.90;;;;;;5016028;28;20217;-92
2020/12/21 07:07:42;;;;;;;14.87;4.10;;;9.60;99.90;;;;;;5016250;28;20441;-92
2020/12/21 07:10:13;;;;;;;18.30;5.25;;;9.60;99.90;;;;;;5015488;28;20181;-91
2020/12/21 07:12:40;;;;;;;18.03;3.73;;;9.60;99.90;;;;;;5015650;28;20272;-92
2020/12/21 07:15:06;;;;;;;22.20;5.60;;;9.60;99.90;;;;;;5015558;28;20196;-91
2020/12/21 07:17:41;;;;;;;21.20;4.33;;;9.60;99.90;;;;;;4999040;28;20203;-91
2020/12/21 07:20:07;;;;;;;18.60;4.37;;;9.60;99.90;;;;;;5015725;28;20168;-92
2020/12/21 07:22:33;;;;;;;11.70;4.47;;;9.60;99.90;;;;;;5015533;28;20260;-91
2020/12/21 07:25:01;;;;;;;13.83;5.20;;;9.50;99.90;;;;;;4999025;28;20284;-91
2020/12/21 07:27:27;;;;;;;15.07;4.68;;;9.50;99.90;;;;;;5015634;28;20177;-92
2020/12/21 07:29:55;;;;;;;18.23;4.88;;;9.50;99.90;;;;;;5007006;28;20171;-91
2020/12/21 07:32:27;;;;;;;13.13;4.30;;;9.50;99.90;;;;;;5009207;28;20263;-91
2020/12/21 07:35:00;;;;;;;10.35;4.07;;;9.50;99.90;;;;;;5015321;28;20188;-91
2020/12/21 07:37:26;;;;;;;22.13;5.38;;;9.50;99.90;;;;;;5015314;28;20169;-92
2020/12/21 07:39:52;;;;;;;21.45;4.28;;;9.50;99.90;;;;;;5015078;28;20492;-91
2020/12/21 07:42:20;;;;;;;14.60;4.63;;;9.50;99.90;;;;;;5016026;28;20181;-91
2020/12/21 07:44:53;;;;;;;15.75;3.80;;;9.50;99.90;;;;;;5015250;28;20184;-92
2020/12/21 07:47:29;;;;;;;17.10;4.25;;;9.50;99.90;;;;;;5016536;28;20199;-92
2020/12/21 07:49:55;;;;;;;13.70;3.77;;;9.60;99.90;;;;;;5015163;28;20693;-91
2020/12/21 07:52:23;;;;;;;9.75;4.13;;;9.50;99.90;;;;;;5014989;28;20180;-91
2020/12/21 07:54:49;;;;;;;7.15;3.63;;;9.50;99.90;;;;;;5016810;28;20169;-91
2020/12/21 07:57:18;;;;;;;9.55;4.10;;;9.50;99.90;;;;;;5015009;28;20177;-92
2020/12/21 07:59:59;;;;;;;18.52;4.45;;;9.50;99.90;;;;;;5014537;28;20215;-92
2020/12/21 08:02:26;;;;;;;7.10;3.40;;;9.50;99.90;;;;;;5014790;28;20204;-91
2020/12/21 08:04:52;;;;;;;14.60;4.30;;;9.50;99.90;;;;;;5014848;28;20215;-91
2020/12/21 08:07:28;;;;;;;19.50;3.95;;;9.50;99.90;;;;;;5014969;28;20176;-91
2020/12/21 08:09:54;;;;;;;12.20;3.83;;;9.60;99.90;;;;;;5015206;28;21542;-91
2020/12/21 08:12:20;;;;;;;12.35;3.88;;;9.60;99.90;;;;;;5031781;28;20181;-93
2020/12/21 08:14:46;;;;;;;9.10;3.63;;;9.60;99.90;;;;;;5037450;28;20173;-91
2020/12/21 08:17:17;;;;;;;13.00;3.53;;;9.60;99.90;;;;;;5033874;28;20173;-92
2020/12/21 08:19:54;;;;;;;7.25;3.10;;;9.60;99.90;;;;;;5016910;28;20176;-92
2020/12/21 08:22:26;;;;;;;11.00;3.13;;;9.60;99.90;;;;;;5014316;28;20180;-92
2020/12/21 08:25:13;;;;;;;15.32;3.53;;;9.60;99.90;;;;;;5014266;28;20256;-92
2020/12/21 08:27:51;;;;;;;5.90;2.83;;;9.60;99.90;;;;;;5014642;28;20226;-92
2020/12/21 08:30:21;;;;;;;9.30;2.70;;;9.60;99.90;;;;;;5033730;28;20168;-93
2020/12/21 08:32:48;;;;;;;9.10;2.45;;;9.60;99.90;;;;;;5035941;28;20155;-91
2020/12/21 08:35:22;;;;;;;9.90;2.80;;;9.70;99.90;;;;;;5023466;28;20177;-93
2020/12/21 08:37:48;;;;;;;9.50;2.50;;;9.70;99.90;;;;;;5014779;28;20176;-91
2020/12/21 08:40:18;;;;;;;7.10;2.95;;;9.70;99.90;;;;;;5013838;28;20535;-92
2020/12/21 08:42:44;;;;;;;7.70;3.20;;;9.60;99.90;;;;;;5014339;28;20176;-92
2020/12/21 08:45:22;;;;;;;8.35;2.33;;;9.60;99.90;;;;;;5014519;28;20192;-92
2020/12/21 08:47:49;;;;;;;10.23;3.05;;;9.60;99.90;;;;;;5014727;28;20200;-92
2020/12/21 08:50:14;;;;;;;5.80;2.50;;;9.60;99.90;;;;;;5014561;28;20173;-93
2020/12/21 08:52:40;;;;;;;10.27;2.60;;;9.70;99.90;;;;;;5014306;28;20276;-92
2020/12/21 08:55:06;;;;;;;5.13;2.10;;;9.70;99.90;;;;;;5013993;28;20169;-92
2020/12/21 08:57:35;;;;;;;6.82;2.20;;;9.70;99.90;;;;;;4997986;28;20177;-89
2020/12/21 09:00:02;;;;;;;7.90;2.30;;;9.70;99.90;;;;;;5013650;28;20172;-91
2020/12/21 09:02:30;;;;;;;12.48;2.58;;;9.70;99.90;;;;;;5014116;28;20268;-91
2020/12/21 09:05:06;;;;;;;;;;;;;;;;;;;;;
2020/12/21 09:07:33;;;;;;;4.05;2.22;;;9.70;99.90;;;;;;5015048;28;20160;-91
2020/12/21 09:09:59;;;;;;;3.97;1.92;;;9.80;99.90;;;;;;5013800;28;20181;-91
2020/12/21 09:12:25;;;;;;;5.80;1.77;;;9.80;99.90;;;;;;5013984;28;20196;-90
2020/12/21 09:14:51;;;;;;;7.15;2.33;;;9.70;99.90;;;;;;5014545;28;20630;-91
2020/12/21 09:17:21;;;;;;;7.22;2.30;;;9.70;99.90;;;;;;4995410;28;20178;-91
2020/12/21 09:19:47;;;;;;;6.15;1.90;;;9.70;99.90;;;;;;5013844;28;20168;-92
2020/12/21 09:22:15;;;;;;;6.70;1.83;;;9.90;99.90;;;;;;5013560;28;20165;-91
2020/12/21 09:24:40;;;;;;;5.32;1.92;;;10.00;99.90;;;;;;5013685;28;20238;-90
2020/12/21 09:27:06;;;;;;;2.95;1.55;;;10.00;99.90;;;;;;5014283;28;20207;-91
2020/12/21 09:29:32;;;;;;;6.50;2.15;;;10.00;99.90;;;;;;5014759;28;20212;-91
2020/12/21 09:31:59;;;;;;;9.55;2.22;;;9.90;99.90;;;;;;5013597;28;20177;-91
2020/12/21 09:34:27;;;;;;;5.22;1.35;;;9.90;99.90;;;;;;5014982;28;20173;-90
2020/12/21 09:36:52;;;;;;;2.72;1.40;;;10.10;99.90;;;;;;5017737;28;20176;-91
2020/12/21 09:39:18;;;;;;;2.90;1.35;;;10.10;99.90;;;;;;5017881;28;20164;-90
2020/12/21 09:41:44;;;;;;;4.32;1.50;;;10.00;99.90;;;;;;5019011;28;20184;-90
2020/12/21 09:44:09;;;;;;;4.15;1.45;;;10.00;99.90;;;;;;5018160;28;20173;-91
2020/12/21 09:46:35;;;;;;;4.05;1.33;;;10.00;99.90;;;;;;5019029;28;20169;-91
2020/12/21 09:49:04;;;;;;;4.18;1.50;;;9.80;99.90;;;;;;5019248;28;20208;-91
2020/12/21 09:51:30;;;;;;;4.22;1.30;;;9.90;99.90;;;;;;4987309;28;20641;-90
2020/12/21 09:53:56;;;;;;;5.55;1.17;;;9.90;99.90;;;;;;5019803;28;20187;-90
2020/12/21 09:56:22;;;;;;;4.13;1.35;;;9.90;99.90;;;;;;5018973;28;20172;-90
2020/12/21 09:58:49;;;;;;;2.95;1.20;;;10.00;99.90;;;;;;5002763;28;20180;-90
2020/12/21 10:01:14;;;;;;;4.57;1.38;;;10.00;99.90;;;;;;5017435;28;20173;-91
2020/12/21 10:03:41;;;;;;;2.72;1.52;;;9.90;99.90;;;;;;5019175;28;20180;-90
2020/12/21 10:06:11;;;;;;;1.27;0.98;;;9.80;99.90;;;;;;5018643;28;20614;-90
2020/12/21 10:08:40;;;;;;;2.90;1.17;;;9.80;99.90;;;;;;5018465;28;20673;-90
2020/12/21 10:11:05;;;;;;;9.73;1.40;;;9.70;99.90;;;;;;5018955;28;20199;-89
2020/12/21 10:13:32;;;;;;;1.70;1.00;;;9.70;99.90;;;;;;5019118;28;20196;-90
2020/12/21 10:15:57;;;;;;;3.17;1.40;;;9.70;99.90;;;;;;5021128;28;20181;-90
2020/12/21 10:18:25;;;;;;;3.20;1.20;;;9.60;99.90;;;;;;5001510;28;20200;-88
2020/12/21 10:20:51;;;;;;;4.10;1.00;;;9.70;99.90;;;;;;5002810;28;20181;-90
2020/12/21 10:23:17;;;;;;;4.35;1.13;;;9.70;99.90;;;;;;4997957;28;20169;-90
2020/12/21 10:25:42;;;;;;;4.50;1.13;;;9.70;99.90;;;;;;5014323;28;20176;-91
2020/12/21 10:28:09;;;;;;;4.03;1.30;;;9.60;99.90;;;;;;5017022;28;20283;-90
2020/12/21 10:30:37;;;;;;;4.55;1.17;;;9.60;99.90;;;;;;5017173;28;20227;-89
2020/12/21 10:33:02;;;;;;;2.20;0.90;;;9.60;99.90;;;;;;4998183;28;20243;-90
2020/12/21 10:35:31;;;;;;;3.28;0.98;;;9.60;99.90;;;;;;5011129;28;20215;-90
2020/12/21 10:37:56;;;;;;;4.40;1.10;;;9.50;99.90;;;;;;5001078;28;20195;-90
2020/12/21 10:40:24;;;;;;;3.83;0.90;;;9.60;99.90;;;;;;5035847;28;20165;-89
2020/12/21 10:42:50;;;;;;;6.47;0.93;;;9.70;99.90;;;;;;5039473;28;20168;-90
2020/12/21 10:45:16;;;;;;;3.17;0.88;;;9.80;99.90;;;;;;5033951;28;20184;-91
2020/12/21 10:47:41;;;;;;;2.78;0.80;;;9.80;99.90;;;;;;5018721;28;20187;-91
2020/12/21 10:50:10;;;;;;;2.72;1.00;;;9.90;99.90;;;;;;5016520;28;20180;-90
2020/12/21 10:52:38;;;;;;;2.08;1.10;;;10.00;99.90;;;;;;5018671;28;20520;-90
2020/12/21 10:55:04;;;;;;;3.27;0.60;;;9.90;99.90;;;;;;5032483;28;20204;-90
2020/12/21 10:57:30;;;;;;;3.00;1.00;;;9.90;99.90;;;;;;5059364;28;20178;-90
2020/12/21 10:59:55;;;;;;;2.75;1.00;;;9.70;99.90;;;;;;5047286;28;20185;-92
2020/12/21 11:02:21;;;;;;;1.40;0.80;;;9.70;99.90;;;;;;5039617;28;20172;-93
2020/12/21 11:04:47;;;;;;;6.47;1.00;;;9.70;99.90;;;;;;5020146;28;20173;-91
2020/12/21 11:07:16;;;;;;;1.95;1.05;;;9.60;99.90;;;;;;5034166;28;20259;-91
2020/12/21 11:09:42;;;;;;;3.57;0.80;;;9.60;99.90;;;;;;5017115;28;20204;-89
2020/12/21 11:12:07;;;;;;;6.13;1.20;;;9.60;99.90;;;;;;5002336;28;20195;-91
2020/12/21 11:14:42;;;;;;;2.90;0.87;;;9.60;99.90;;;;;;4999328;28;20208;-92
2020/12/21 11:17:07;;;;;;;5.67;0.80;;;9.60;99.90;;;;;;4997619;28;20165;-91
2020/12/21 11:19:33;;;;;;;1.40;0.75;;;9.60;99.90;;;;;;5012029;28;20264;-91
2020/12/21 11:21:59;;;;;;;4.57;0.83;;;9.60;99.90;;;;;;4990270;28;20189;-91
2020/12/21 11:24:27;;;;;;;3.57;1.00;;;9.50;99.90;;;;;;5002280;28;20193;-91
2020/12/21 11:26:53;;;;;;;1.77;0.80;;;9.60;99.90;;;;;;5023125;28;20176;-90
2020/12/21 11:29:19;;;;;;;1.67;0.70;;;9.60;99.90;;;;;;4999705;28;20223;-88
2020/12/21 11:31:47;;;;;;;2.43;1.07;;;9.50;99.90;;;;;;5015864;28;20629;-91
2020/12/21 11:34:13;;;;;;;2.63;0.90;;;9.50;99.90;;;;;;5000254;28;20169;-90
2020/12/21 11:36:42;;;;;;;5.37;1.60;;;9.60;99.90;;;;;;5011913;28;20516;-89
2020/12/21 11:39:08;;;;;;;3.83;0.90;;;9.60;99.90;;;;;;5015239;28;20271;-88
2020/12/21 11:41:33;;;;;;;3.43;0.97;;;9.50;99.90;;;;;;4995855;28;20584;-90
2020/12/21 11:44:02;;;;;;;6.53;0.90;;;9.50;99.90;;;;;;5015003;28;20195;-90
2020/12/21 11:46:29;;;;;;;1.80;1.00;;;9.60;99.90;;;;;;5015265;28;20702;-90
2020/12/21 11:48:55;;;;;;;2.47;0.87;;;9.60;99.90;;;;;;5015064;28;20299;-90
2020/12/21 11:51:21;;;;;;;3.97;1.00;;;9.60;99.90;;;;;;5016617;28;20204;-91
2020/12/21 11:53:47;;;;;;;4.38;0.95;;;9.70;99.90;;;;;;5014941;28;20200;-91
2020/12/21 11:56:20;;;;;;;3.55;1.13;;;9.70;99.90;;;;;;4995295;28;20187;-91
2020/12/21 11:58:46;;;;;;;2.53;1.37;;;9.70;99.90;;;;;;5015211;28;20214;-91
2020/12/21 12:01:12;;;;;;;6.70;1.30;;;9.80;99.90;;;;;;5015740;28;20179;-91
2020/12/21 12:03:38;;;;;;;3.43;1.00;;;9.80;99.90;;;;;;4998991;28;20615;-91
2020/12/21 12:06:03;;;;;;;1.08;0.95;;;9.80;99.90;;;;;;5015167;28;20173;-90
2020/12/21 12:08:29;;;;;;;1.93;0.83;;;9.90;99.90;;;;;;5015715;28;20686;-91
2020/12/21 12:10:55;;;;;;;5.72;1.17;;;9.90;99.90;;;;;;5017351;28;20638;-90
2020/12/21 12:13:20;;;;;;;4.47;0.93;;;9.90;99.90;;;;;;5016762;28;20241;-90
2020/12/21 12:15:48;;;;;;;2.35;1.08;;;9.90;99.90;;;;;;5015803;28;20180;-91
2020/12/21 12:18:17;;;;;;;2.20;0.95;;;9.90;99.90;;;;;;5015601;28;20249;-92
2020/12/21 12:20:43;;;;;;;1.55;0.80;;;9.80;99.90;;;;;;5015819;28;20184;-91
2020/12/21 12:23:09;;;;;;;2.63;0.98;;;9.80;99.90;;;;;;4978121;28;20686;-93
2020/12/21 12:25:37;;;;;;;1.58;1.08;;;9.70;99.90;;;;;;4995642;28;20204;-90
2020/12/21 12:28:03;;;;;;;2.53;0.95;;;9.70;99.90;;;;;;4980831;28;20205;-90
2020/12/21 12:30:28;;;;;;;5.15;0.93;;;9.70;99.90;;;;;;5014842;28;20267;-85
2020/12/21 12:32:54;;;;;;;2.88;1.23;;;9.70;99.90;;;;;;5013768;28;20185;-87
2020/12/21 12:35:20;;;;;;;1.95;1.00;;;9.60;99.90;;;;;;4997527;28;20200;-90
2020/12/21 12:37:45;;;;;;;3.77;1.03;;;9.70;99.90;;;;;;5013857;28;20235;-90
2020/12/21 12:40:12;;;;;;;3.72;1.05;;;9.70;99.90;;;;;;5013835;28;20239;-90
2020/12/21 12:42:38;;;;;;;6.40;1.30;;;9.70;99.90;;;;;;5014226;28;20173;-90
2020/12/21 12:45:05;;;;;;;3.08;1.30;;;9.60;99.90;;;;;;5014222;28;20169;-89
2020/12/21 12:47:31;;;;;;;3.95;1.25;;;9.60;99.90;;;;;;5015542;28;20173;-90
2020/12/21 12:49:57;;;;;;;3.20;1.25;;;9.70;99.90;;;;;;5017439;28;20180;-89
2020/12/21 12:52:23;;;;;;;3.13;0.80;;;9.70;99.90;;;;;;4998632;28;20173;-89